Time;durP1;ratioP1;P1;durP2;ratioP2;P2;SDS_P1;SDS_P2;PMS_P1;PMS_P2;Temp;Humidity;BMP_temperature;BMP_pressure;BME280_temperature;BME280_humidity;BME280_pressure;Samples;Min_cycle;Max_cycle;Signal;HPM_P1;HPM_P2
2023/01/20 00:02:35;;;;;;;10.68;5.88;;;;;;;;;;5044970;28;20082;-83
2023/01/20 00:05:20;;;;;;;9.23;5.10;;;;;;;;;;5054118;28;20537;-83
2023/01/20 00:08:06;;;;;;;13.15;5.70;;;;;;;;;;5067476;28;20075;-73
2023/01/20 00:10:51;;;;;;;12.63;5.45;;;;;;;;;;5030395;28;20045;-70
2023/01/20 00:13:37;;;;;;;9.82;4.55;;;;;;;;;;5049417;28;20021;-83
2023/01/20 00:16:22;;;;;;;8.45;5.40;;;;;;;;;;5053281;28;20029;-82
2023/01/20 00:19:09;;;;;;;10.30;5.32;;;;;;;;;;5050177;28;20332;-86
2023/01/20 00:21:54;;;;;;;11.93;5.15;;;;;;;;;;5039784;28;20028;-83
2023/01/20 00:24:39;;;;;;;10.35;4.68;;;;;;;;;;5062510;28;20380;-84
2023/01/20 00:27:25;;;;;;;8.73;4.80;;;;;;;;;;5056965;28;20025;-73
2023/01/20 00:30:10;;;;;;;9.55;5.50;;;;;;;;;;5048265;28;20400;-76
2023/01/20 00:32:55;;;;;;;13.15;6.65;;;;;;;;;;5044915;28;20120;-76
2023/01/20 00:35:41;;;;;;;9.07;5.60;;;;;;;;;;5040343;28;20036;-76
2023/01/20 00:38:26;;;;;;;12.25;5.45;;;;;;;;;;5059701;28;20025;-77
2023/01/20 00:41:11;;;;;;;12.30;5.72;;;;;;;;;;5045144;28;20025;-79
2023/01/20 00:43:57;;;;;;;11.40;5.93;;;;;;;;;;5041450;28;20400;-77
2023/01/20 00:46:42;;;;;;;9.40;5.60;;;;;;;;;;5042072;28;20055;-70
2023/01/20 00:49:27;;;;;;;10.95;5.78;;;;;;;;;;5059405;28;20029;-72
2023/01/20 00:52:13;;;;;;;13.00;5.30;;;;;;;;;;5043682;28;20040;-70
2023/01/20 00:54:58;;;;;;;11.75;4.75;;;;;;;;;;5038282;28;20021;-70
2023/01/20 00:57:43;;;;;;;11.38;4.60;;;;;;;;;;5037869;28;20445;-70
2023/01/20 01:00:28;;;;;;;9.77;5.15;;;;;;;;;;5030894;28;20032;-71
2023/01/20 01:03:14;;;;;;;10.77;5.85;;;;;;;;;;5062833;28;20088;-69
2023/01/20 01:06:10;;;;;;;7.97;4.25;;;;;;;;;;5061071;28;20022;-69
2023/01/20 01:08:55;;;;;;;8.00;4.47;;;;;;;;;;5054622;28;20098;-74
2023/01/20 01:11:41;;;;;;;9.77;5.97;;;;;;;;;;5058479;28;20033;-70
2023/01/20 01:14:26;;;;;;;10.55;5.45;;;;;;;;;;5048426;28;20029;-73
2023/01/20 01:17:11;;;;;;;9.82;5.10;;;;;;;;;;5041550;28;20082;-72
2023/01/20 01:19:56;;;;;;;12.85;7.20;;;;;;;;;;5059203;28;20033;-73
2023/01/20 01:22:42;;;;;;;9.95;5.82;;;;;;;;;;5054721;28;20380;-70
2023/01/20 01:25:27;;;;;;;10.43;5.25;;;;;;;;;;5042761;28;20070;-70
2023/01/20 01:28:12;;;;;;;10.30;5.57;;;;;;;;;;5055331;28;20092;-70
2023/01/20 01:31:01;;;;;;;10.35;5.95;;;;;;;;;;5044114;28;20549;-69
2023/01/20 01:33:47;;;;;;;8.85;4.82;;;;;;;;;;5028406;28;20029;-70
2023/01/20 01:36:32;;;;;;;11.82;5.63;;;;;;;;;;5038702;28;20044;-70
2023/01/20 01:39:17;;;;;;;10.15;6.00;;;;;;;;;;5059594;28;20025;-70
2023/01/20 01:42:08;;;;;;;9.63;5.20;;;;;;;;;;5046534;28;20029;-83
2023/01/20 01:45:09;;;;;;;12.07;6.18;;;;;;;;;;5061551;28;20089;-70
2023/01/20 01:47:54;;;;;;;9.05;4.63;;;;;;;;;;5059138;28;20491;-70
2023/01/20 01:50:47;;;;;;;9.80;5.40;;;;;;;;;;5044266;28;20037;-71
2023/01/20 01:53:36;;;;;;;11.70;5.50;;;;;;;;;;5045979;28;20036;-70
2023/01/20 01:56:21;;;;;;;7.85;4.95;;;;;;;;;;5055562;28;20108;-71
2023/01/20 01:59:07;;;;;;;8.80;4.63;;;;;;;;;;5058304;28;20071;-71
2023/01/20 02:01:52;;;;;;;10.23;5.15;;;;;;;;;;5066511;28;20072;-72
2023/01/20 02:04:38;;;;;;;9.00;4.90;;;;;;;;;;5058044;28;20059;-71
2023/01/20 02:07:24;;;;;;;10.27;5.20;;;;;;;;;;5051677;28;20061;-71
2023/01/20 02:10:10;;;;;;;9.60;5.13;;;;;;;;;;5037286;28;20025;-73
2023/01/20 02:12:55;;;;;;;8.65;5.25;;;;;;;;;;5030970;28;20032;-72
2023/01/20 02:15:44;;;;;;;10.30;5.70;;;;;;;;;;5040890;28;20056;-71
2023/01/20 02:18:43;;;;;;;7.83;4.73;;;;;;;;;;5045915;28;20037;-77
2023/01/20 02:21:34;;;;;;;15.15;6.38;;;;;;;;;;5028851;28;20043;-70
2023/01/20 02:24:19;;;;;;;10.02;6.50;;;;;;;;;;5060461;28;20163;-71
2023/01/20 02:27:08;;;;;;;10.73;5.65;;;;;;;;;;5057761;28;20021;-69
2023/01/20 02:30:12;;;;;;;11.70;5.38;;;;;;;;;;5040568;28;20064;-70
2023/01/20 02:33:18;;;;;;;11.00;5.40;;;;;;;;;;5064292;28;20074;-70
2023/01/20 02:36:03;;;;;;;8.20;3.97;;;;;;;;;;5053088;28;20047;-71
2023/01/20 02:38:57;;;;;;;10.80;4.90;;;;;;;;;;5041523;28;20033;-70
2023/01/20 02:41:51;;;;;;;9.88;5.00;;;;;;;;;;5040335;28;20568;-68
2023/01/20 02:44:36;;;;;;;9.95;5.25;;;;;;;;;;5048770;28;20408;-71
2023/01/20 02:47:34;;;;;;;8.45;4.60;;;;;;;;;;5038405;28;20047;-70
2023/01/20 02:50:21;;;;;;;8.63;5.22;;;;;;;;;;5044558;28;20174;-72
2023/01/20 02:53:07;;;;;;;10.90;5.95;;;;;;;;;;5056055;28;20033;-70
2023/01/20 02:55:53;;;;;;;10.85;6.15;;;;;;;;;;5053075;28;20143;-77
2023/01/20 02:58:41;;;;;;;8.73;5.53;;;;;;;;;;5040473;28;20025;-68
2023/01/20 03:01:32;;;;;;;10.18;5.10;;;;;;;;;;5039520;28;20037;-70
2023/01/20 03:04:19;;;;;;;9.68;5.35;;;;;;;;;;5051107;28;20040;-70
2023/01/20 03:07:06;;;;;;;8.60;4.93;;;;;;;;;;5057593;28;20095;-69
2023/01/20 03:09:54;;;;;;;10.57;6.30;;;;;;;;;;5042642;28;20687;-70
2023/01/20 03:12:44;;;;;;;10.95;5.18;;;;;;;;;;5055373;28;20037;-73
2023/01/20 03:15:40;;;;;;;11.18;5.70;;;;;;;;;;5048821;28;20083;-73
2023/01/20 03:18:27;;;;;;;9.95;5.25;;;;;;;;;;5040491;28;20032;-71
2023/01/20 03:21:13;;;;;;;8.30;4.97;;;;;;;;;;5042729;28;20031;-74
2023/01/20 03:24:03;;;;;;;8.93;5.50;;;;;;;;;;5050257;28;20527;-73
2023/01/20 03:26:48;;;;;;;9.80;5.10;;;;;;;;;;5052618;28;20086;-73
2023/01/20 03:29:33;;;;;;;10.30;6.05;;;;;;;;;;5059626;28;20102;-72
2023/01/20 03:32:24;;;;;;;11.07;5.45;;;;;;;;;;5041977;28;20484;-72
2023/01/20 03:35:11;;;;;;;12.07;5.97;;;;;;;;;;5058203;28;20511;-70
2023/01/20 03:37:56;;;;;;;12.63;7.18;;;;;;;;;;5063835;28;20040;-70
2023/01/20 03:40:47;;;;;;;10.80;5.95;;;;;;;;;;5045801;28;20060;-69
2023/01/20 03:43:43;;;;;;;10.00;5.40;;;;;;;;;;5057204;28;20502;-69
2023/01/20 03:46:38;;;;;;;9.80;4.68;;;;;;;;;;5045434;28;20033;-71
2023/01/20 03:49:30;;;;;;;11.57;6.18;;;;;;;;;;5044928;28;20032;-73
2023/01/20 03:52:22;;;;;;;11.30;5.10;;;;;;;;;;5045857;28;20093;-69
2023/01/20 03:55:13;;;;;;;13.25;6.30;;;;;;;;;;5045208;28;20032;-72
2023/01/20 03:58:03;;;;;;;9.52;5.38;;;;;;;;;;5055166;28;20254;-69
2023/01/20 04:00:49;;;;;;;9.73;5.95;;;;;;;;;;5046792;28;20530;-70
2023/01/20 04:03:37;;;;;;;10.38;5.75;;;;;;;;;;5054224;28;20036;-71
2023/01/20 04:06:24;;;;;;;8.93;5.07;;;;;;;;;;5039335;28;20104;-69
2023/01/20 04:09:11;;;;;;;13.13;6.10;;;;;;;;;;5069780;28;20087;-69
2023/01/20 04:11:57;;;;;;;11.30;5.00;;;;;;;;;;5046552;28;20719;-74
2023/01/20 04:14:42;;;;;;;11.10;5.63;;;;;;;;;;5044510;28;20070;-74
2023/01/20 04:17:28;;;;;;;11.73;6.15;;;;;;;;;;5060653;28;20036;-72
2023/01/20 04:20:14;;;;;;;9.35;5.10;;;;;;;;;;5063256;28;20064;-72
2023/01/20 04:23:00;;;;;;;9.43;4.78;;;;;;;;;;5043051;28;20435;-72
2023/01/20 04:25:45;;;;;;;15.18;6.72;;;;;;;;;;5045594;28;20021;-71
2023/01/20 04:28:31;;;;;;;10.68;5.55;;;;;;;;;;5045454;28;20060;-71
2023/01/20 04:31:16;;;;;;;10.88;5.82;;;;;;;;;;5042962;28;20724;-73
2023/01/20 04:34:02;;;;;;;10.13;6.20;;;;;;;;;;5059995;28;20037;-74
2023/01/20 04:36:47;;;;;;;10.35;5.78;;;;;;;;;;5041648;28;20609;-73
2023/01/20 04:39:32;;;;;;;9.60;5.10;;;;;;;;;;5045623;28;20029;-74
2023/01/20 04:42:18;;;;;;;9.82;5.95;;;;;;;;;;5051813;28;20035;-74
2023/01/20 04:45:03;;;;;;;11.38;6.15;;;;;;;;;;5057079;28;20060;-74
2023/01/20 04:47:49;;;;;;;11.07;6.18;;;;;;;;;;5058064;28;20029;-72
2023/01/20 04:50:38;;;;;;;11.30;6.45;;;;;;;;;;5046960;28;20562;-69
2023/01/20 04:53:23;;;;;;;12.60;6.70;;;;;;;;;;5044036;28;20033;-74
2023/01/20 04:56:09;;;;;;;11.38;6.13;;;;;;;;;;5042555;28;20033;-71
2023/01/20 04:58:55;;;;;;;11.02;6.25;;;;;;;;;;5039674;28;20025;-70
2023/01/20 05:01:40;;;;;;;11.88;6.10;;;;;;;;;;5045057;28;20025;-72
2023/01/20 05:04:25;;;;;;;9.60;5.63;;;;;;;;;;5030254;28;20029;-73
2023/01/20 05:07:10;;;;;;;12.85;7.60;;;;;;;;;;5042060;28;20479;-72
2023/01/20 05:09:55;;;;;;;12.10;6.40;;;;;;;;;;5044939;28;20568;-70
2023/01/20 05:12:41;;;;;;;9.77;5.78;;;;;;;;;;5066575;28;20053;-71
2023/01/20 05:15:26;;;;;;;10.82;6.70;;;;;;;;;;5040466;28;20485;-71
2023/01/20 05:18:11;;;;;;;11.45;6.20;;;;;;;;;;5058324;28;20112;-70
2023/01/20 05:20:56;;;;;;;9.95;5.68;;;;;;;;;;5044361;28;20027;-70
2023/01/20 05:23:42;;;;;;;10.15;5.55;;;;;;;;;;5055589;28;20043;-71
2023/01/20 05:26:27;;;;;;;10.80;5.80;;;;;;;;;;5042158;28;20604;-86
2023/01/20 05:29:12;;;;;;;9.77;5.05;;;;;;;;;;5056010;28;20085;-86
2023/01/20 05:31:57;;;;;;;10.52;5.63;;;;;;;;;;5059456;28;20507;-85
2023/01/20 05:34:42;;;;;;;9.43;5.97;;;;;;;;;;5064801;28;20559;-86
2023/01/20 05:37:28;;;;;;;11.63;6.63;;;;;;;;;;5054948;28;20452;-86
2023/01/20 05:40:13;;;;;;;11.55;7.03;;;;;;;;;;5053547;28;20021;-70
2023/01/20 05:42:59;;;;;;;9.07;5.55;;;;;;;;;;5050760;28;20442;-83
2023/01/20 05:45:45;;;;;;;10.25;5.63;;;;;;;;;;5034925;28;20530;-83
2023/01/20 05:48:31;;;;;;;9.90;5.82;;;;;;;;;;5042908;28;20029;-84
2023/01/20 05:51:16;;;;;;;12.60;5.20;;;;;;;;;;5045047;28;20036;-83
2023/01/20 05:54:01;;;;;;;11.25;6.28;;;;;;;;;;5040017;28;20424;-83
2023/01/20 05:56:47;;;;;;;10.68;5.50;;;;;;;;;;5046356;28;20040;-81
2023/01/20 05:59:32;;;;;;;11.07;5.22;;;;;;;;;;5050207;28;20091;-71
2023/01/20 06:02:18;;;;;;;12.00;5.93;;;;;;;;;;5041170;28;20029;-71
2023/01/20 06:05:04;;;;;;;10.70;5.28;;;;;;;;;;5050335;28;20511;-71
2023/01/20 06:07:49;;;;;;;12.60;6.78;;;;;;;;;;5036416;28;20025;-70
2023/01/20 06:10:34;;;;;;;13.10;7.05;;;;;;;;;;5037502;28;20017;-71
2023/01/20 06:13:20;;;;;;;13.00;6.60;;;;;;;;;;5043082;28;20037;-69
2023/01/20 06:16:05;;;;;;;11.10;5.80;;;;;;;;;;5045752;28;20016;-72
2023/01/20 06:18:50;;;;;;;18.33;6.00;;;;;;;;;;5043013;28;20029;-75
2023/01/20 06:21:36;;;;;;;9.70;5.85;;;;;;;;;;5045119;28;20087;-70
2023/01/20 06:24:21;;;;;;;12.98;6.53;;;;;;;;;;5044219;28;20063;-72
2023/01/20 06:27:06;;;;;;;11.65;6.78;;;;;;;;;;5059950;28;20060;-71
2023/01/20 06:29:51;;;;;;;11.52;6.07;;;;;;;;;;5034267;28;20133;-70
2023/01/20 06:32:37;;;;;;;10.15;6.38;;;;;;;;;;5037392;28;20091;-71
2023/01/20 06:35:22;;;;;;;11.13;6.45;;;;;;;;;;5044385;28;20029;-70
2023/01/20 06:38:08;;;;;;;12.02;6.75;;;;;;;;;;5055178;28;20035;-83
2023/01/20 06:40:57;;;;;;;10.38;6.50;;;;;;;;;;5056279;28;20025;-83
2023/01/20 06:43:42;;;;;;;12.35;5.90;;;;;;;;;;5029089;28;20360;-86
2023/01/20 06:46:28;;;;;;;10.07;6.00;;;;;;;;;;5034886;28;20030;-84
2023/01/20 06:49:13;;;;;;;11.68;5.72;;;;;;;;;;5051568;28;20323;-83
2023/01/20 06:51:58;;;;;;;12.38;7.07;;;;;;;;;;5062445;28;20029;-83
2023/01/20 06:54:44;;;;;;;10.27;5.75;;;;;;;;;;5045976;28;20051;-70
2023/01/20 06:57:29;;;;;;;8.90;5.65;;;;;;;;;;5047377;28;20036;-82
2023/01/20 07:00:14;;;;;;;10.15;5.70;;;;;;;;;;5058925;28;20023;-80
2023/01/20 07:03:00;;;;;;;11.52;6.20;;;;;;;;;;5050155;28;20086;-82
2023/01/20 07:05:53;;;;;;;13.73;5.93;;;;;;;;;;5020420;28;20506;-81
2023/01/20 07:08:39;;;;;;;10.88;6.45;;;;;;;;;;5045820;28;20454;-80
2023/01/20 07:11:24;;;;;;;11.75;6.20;;;;;;;;;;5048159;28;20041;-71
2023/01/20 07:14:09;;;;;;;9.95;6.30;;;;;;;;;;5035702;28;20029;-74
2023/01/20 07:16:54;;;;;;;10.05;5.85;;;;;;;;;;5055021;28;20392;-71
2023/01/20 07:19:39;;;;;;;13.18;5.78;;;;;;;;;;5045164;28;20026;-73
2023/01/20 07:22:25;;;;;;;9.40;5.93;;;;;;;;;;5038475;28;20064;-72
2023/01/20 07:25:10;;;;;;;11.27;6.43;;;;;;;;;;5043700;28;20035;-72
2023/01/20 07:27:56;;;;;;;13.30;6.60;;;;;;;;;;5040047;28;20025;-73
2023/01/20 07:30:41;;;;;;;10.93;6.15;;;;;;;;;;5040567;28;20429;-71
2023/01/20 07:33:27;;;;;;;10.38;5.75;;;;;;;;;;5059355;28;20071;-83
2023/01/20 07:36:12;;;;;;;11.55;5.75;;;;;;;;;;5039926;28;20539;-83
2023/01/20 07:38:58;;;;;;;11.95;6.15;;;;;;;;;;5043297;28;20024;-83
2023/01/20 07:41:47;;;;;;;11.25;6.25;;;;;;;;;;5060159;28;20709;-82
2023/01/20 07:44:32;;;;;;;11.00;6.47;;;;;;;;;;5042389;28;20037;-83
2023/01/20 07:47:18;;;;;;;12.05;6.35;;;;;;;;;;5029193;28;20033;-82
2023/01/20 07:50:03;;;;;;;13.75;5.82;;;;;;;;;;5053539;28;20025;-71
2023/01/20 07:52:48;;;;;;;12.75;6.05;;;;;;;;;;5054630;28;20355;-73
2023/01/20 07:55:33;;;;;;;10.23;5.55;;;;;;;;;;5050080;28;20021;-70
2023/01/20 07:58:19;;;;;;;11.73;6.28;;;;;;;;;;5041194;28;20025;-71
2023/01/20 08:01:04;;;;;;;11.50;6.07;;;;;;;;;;5056915;28;20111;-71
2023/01/20 08:03:50;;;;;;;13.23;5.97;;;;;;;;;;5025787;28;20108;-72
2023/01/20 08:06:35;;;;;;;11.05;5.68;;;;;;;;;;5040542;28;20078;-77
2023/01/20 08:09:20;;;;;;;11.43;6.82;;;;;;;;;;5040181;28;20372;-84
2023/01/20 08:12:06;;;;;;;14.13;5.57;;;;;;;;;;5040198;28;20033;-70
2023/01/20 08:14:51;;;;;;;11.50;6.63;;;;;;;;;;5040064;28;20025;-72
2023/01/20 08:17:36;;;;;;;14.30;6.50;;;;;;;;;;5042431;28;20021;-69
2023/01/20 08:20:21;;;;;;;16.23;6.18;;;;;;;;;;5053128;28;20471;-70
2023/01/20 08:23:07;;;;;;;10.27;5.85;;;;;;;;;;5037680;28;20171;-69
2023/01/20 08:25:57;;;;;;;13.52;6.15;;;;;;;;;;5060683;28;20021;-75
2023/01/20 08:28:42;;;;;;;12.43;6.80;;;;;;;;;;5035633;28;20052;-77
2023/01/20 08:31:27;;;;;;;12.70;6.50;;;;;;;;;;5047845;28;20033;-80
2023/01/20 08:34:13;;;;;;;13.10;5.75;;;;;;;;;;5055674;28;20492;-76
2023/01/20 08:36:58;;;;;;;13.23;7.03;;;;;;;;;;5042403;28;20037;-76
2023/01/20 08:39:44;;;;;;;10.45;5.97;;;;;;;;;;5029664;28;20131;-75
2023/01/20 08:42:29;;;;;;;12.65;5.88;;;;;;;;;;5048017;28;20587;-77
2023/01/20 08:45:14;;;;;;;13.15;7.00;;;;;;;;;;5056796;28;20108;-76
2023/01/20 08:48:00;;;;;;;13.73;7.05;;;;;;;;;;5041317;28;20029;-79
2023/01/20 08:50:45;;;;;;;15.70;6.85;;;;;;;;;;5043333;28;20337;-79
2023/01/20 08:53:30;;;;;;;12.77;6.32;;;;;;;;;;5037889;28;20046;-80
2023/01/20 08:56:16;;;;;;;12.10;6.55;;;;;;;;;;5052611;28;20036;-80
2023/01/20 08:59:02;;;;;;;12.20;6.13;;;;;;;;;;5052905;28;20512;-75
2023/01/20 09:01:47;;;;;;;11.48;6.63;;;;;;;;;;5059278;28;20025;-70
2023/01/20 09:04:34;;;;;;;10.90;6.07;;;;;;;;;;5041299;28;20067;-76
2023/01/20 09:07:20;;;;;;;11.88;5.47;;;;;;;;;;5058960;28;20032;-75
2023/01/20 09:10:06;;;;;;;10.43;6.05;;;;;;;;;;5045375;28;20040;-74
2023/01/20 09:12:51;;;;;;;11.07;5.57;;;;;;;;;;5057526;28;20677;-75
2023/01/20 09:15:36;;;;;;;11.20;5.55;;;;;;;;;;5041083;28;20059;-75
2023/01/20 09:18:22;;;;;;;13.98;6.68;;;;;;;;;;5045095;28;20029;-71
2023/01/20 09:21:07;;;;;;;10.80;6.22;;;;;;;;;;5042782;28;20053;-69
2023/01/20 09:23:52;;;;;;;11.88;5.70;;;;;;;;;;5043770;28;20078;-71
2023/01/20 09:26:40;;;;;;;11.05;6.25;;;;;;;;;;5042578;28;20235;-70
2023/01/20 09:29:25;;;;;;;10.93;5.47;;;;;;;;;;5055488;28;20053;-70
2023/01/20 09:32:11;;;;;;;10.63;5.93;;;;;;;;;;5042514;28;20480;-70
2023/01/20 09:34:57;;;;;;;11.68;5.68;;;;;;;;;;5041380;28;20098;-70
2023/01/20 09:44:06;;;;;;;10.80;6.07;;;;;;;;;;5042205;28;20037;-71
2023/01/20 09:47:18;;;;;;;11.85;5.28;;;;;;;;;;5053570;28;20033;-68
2023/01/20 09:53:16;;;;;;;10.63;5.47;;;;;;;;;;5041919;28;20045;-70
2023/01/20 09:56:15;;;;;;;14.32;5.95;;;;;;;;;;5038041;28;20025;-72
2023/01/20 09:59:09;;;;;;;14.02;5.75;;;;;;;;;;5057069;28;20079;-82
2023/01/20 10:01:56;;;;;;;10.95;5.88;;;;;;;;;;5046418;28;20025;-75
2023/01/20 10:04:44;;;;;;;13.95;6.75;;;;;;;;;;5052522;28;20572;-73
2023/01/20 10:07:49;;;;;;;9.48;5.68;;;;;;;;;;5041389;28;20381;-75
2023/01/20 10:10:50;;;;;;;12.27;6.20;;;;;;;;;;5057900;28;20061;-75
2023/01/20 10:13:51;;;;;;;10.75;5.78;;;;;;;;;;5037988;28;20050;-78
2023/01/20 10:16:39;;;;;;;11.15;5.65;;;;;;;;;;5042054;28;20021;-73
2023/01/20 10:20:02;;;;;;;11.10;6.15;;;;;;;;;;5043698;28;20036;-72
2023/01/20 10:22:51;;;;;;;10.77;5.63;;;;;;;;;;4996004;28;20393;-74
2023/01/20 10:25:52;;;;;;;9.90;5.78;;;;;;;;;;5042406;28;20168;-72
2023/01/20 10:28:39;;;;;;;10.20;6.13;;;;;;;;;;5043414;28;20125;-73
2023/01/20 10:31:27;;;;;;;11.88;6.45;;;;;;;;;;5043828;28;20268;-73
2023/01/20 10:34:17;;;;;;;10.32;5.70;;;;;;;;;;5046519;28;20025;-69
2023/01/20 10:37:08;;;;;;;12.38;6.15;;;;;;;;;;5056773;28;20032;-70
2023/01/20 10:39:56;;;;;;;10.95;6.28;;;;;;;;;;5054346;28;20029;-75
2023/01/20 10:42:46;;;;;;;10.23;5.57;;;;;;;;;;5044410;28;20191;-75
2023/01/20 10:45:49;;;;;;;11.80;6.25;;;;;;;;;;5053875;28;20127;-73
2023/01/20 10:48:35;;;;;;;10.43;5.60;;;;;;;;;;5042411;28;20056;-72
2023/01/20 10:51:21;;;;;;;10.13;5.85;;;;;;;;;;5040087;28;20037;-74
2023/01/20 10:54:06;;;;;;;10.35;5.78;;;;;;;;;;5044087;28;20029;-77
2023/01/20 10:56:54;;;;;;;9.80;6.07;;;;;;;;;;5039356;28;20503;-78
2023/01/20 10:59:48;;;;;;;11.43;5.95;;;;;;;;;;5042306;28;20527;-80
2023/01/20 11:02:34;;;;;;;10.95;5.50;;;;;;;;;;5054902;28;20029;-79
2023/01/20 11:05:30;;;;;;;9.95;4.40;;;;;;;;;;5043135;28;20025;-81
2023/01/20 11:08:22;;;;;;;9.85;4.75;;;;;;;;;;5036059;28;20041;-80
2023/01/20 11:11:09;;;;;;;10.07;4.75;;;;;;;;;;5045505;28;20101;-72
2023/01/20 11:13:56;;;;;;;9.32;4.60;;;;;;;;;;5022888;28;20029;-81
2023/01/20 11:16:45;;;;;;;8.98;4.35;;;;;;;;;;5041842;28;20472;-81
2023/01/20 11:19:50;;;;;;;9.73;5.40;;;;;;;;;;5049722;28;20411;-81
2023/01/20 11:22:36;;;;;;;8.88;4.32;;;;;;;;;;5056023;28;20025;-82
2023/01/20 11:25:23;;;;;;;6.85;4.07;;;;;;;;;;5061931;28;20395;-82
2023/01/20 11:28:15;;;;;;;9.70;4.18;;;;;;;;;;5057508;28;20032;-82
2023/01/20 11:31:01;;;;;;;8.55;4.28;;;;;;;;;;5041494;28;20063;-69
2023/01/20 11:33:54;;;;;;;8.88;4.75;;;;;;;;;;5036464;28;20037;-82
2023/01/20 11:36:39;;;;;;;8.55;4.30;;;;;;;;;;5043847;28;20029;-82
2023/01/20 11:39:29;;;;;;;9.10;4.20;;;;;;;;;;5045797;28;20021;-80
2023/01/20 11:42:15;;;;;;;;;;;;;;;;;;5034559;28;20024;-81
2023/01/20 11:45:01;;;;;;;12.85;5.32;;;;;;;;;;5041203;28;19909;-79
2023/01/20 11:47:57;;;;;;;10.68;4.18;;;;;;;;;;5040063;28;20026;-70
2023/01/20 11:50:46;;;;;;;8.40;3.90;;;;;;;;;;5055760;28;20591;-74
2023/01/20 11:53:32;;;;;;;6.82;3.75;;;;;;;;;;5043170;28;20037;-73
2023/01/20 11:56:21;;;;;;;6.57;3.78;;;;;;;;;;5028439;28;20108;-71
2023/01/20 11:59:17;;;;;;;7.03;4.10;;;;;;;;;;5034642;28;20147;-72
2023/01/20 12:02:02;;;;;;;6.50;3.28;;;;;;;;;;5053684;28;20040;-76
2023/01/20 12:04:48;;;;;;;7.70;3.50;;;;;;;;;;5045707;28;20041;-77
2023/01/20 12:07:36;;;;;;;7.55;4.25;;;;;;;;;;5047097;28;20016;-77
2023/01/20 12:10:23;;;;;;;5.97;3.72;;;;;;;;;;5066443;28;20043;-77
2023/01/20 12:13:15;;;;;;;6.88;2.70;;;;;;;;;;5056205;28;20095;-77
2023/01/20 12:16:02;;;;;;;7.95;2.97;;;;;;;;;;5060542;28;20021;-76
2023/01/20 12:18:52;;;;;;;8.65;3.28;;;;;;;;;;5048019;28;20044;-74
2023/01/20 12:21:41;;;;;;;6.20;2.90;;;;;;;;;;5033654;28;20021;-74
2023/01/20 12:25:06;;;;;;;5.40;3.00;;;;;;;;;;5053776;28;20033;-71
2023/01/20 12:27:47;;;;;;;6.82;3.28;;;;;;;;;;5041252;28;20484;-75
2023/01/20 12:30:45;;;;;;;5.90;2.97;;;;;;;;;;5044829;28;20510;-76
2023/01/20 12:33:42;;;;;;;7.32;3.00;;;;;;;;;;5052257;28;20028;-74
2023/01/20 12:36:29;;;;;;;5.47;2.65;;;;;;;;;;5039032;28;20030;-75
2023/01/20 12:39:27;;;;;;;6.70;2.97;;;;;;;;;;5044724;28;20115;-72
2023/01/20 12:42:21;;;;;;;4.70;2.42;;;;;;;;;;5044577;28;20144;-74
2023/01/20 12:45:17;;;;;;;6.50;2.78;;;;;;;;;;5041892;28;20097;-77
2023/01/20 12:48:11;;;;;;;5.88;2.30;;;;;;;;;;5048737;28;20043;-72
2023/01/20 12:51:04;;;;;;;6.18;2.45;;;;;;;;;;5048106;28;20144;-71
2023/01/20 12:54:04;;;;;;;3.40;2.20;;;;;;;;;;5040481;28;20487;-71
2023/01/20 12:56:56;;;;;;;6.35;2.70;;;;;;;;;;5058969;28;20045;-72
2023/01/20 12:59:45;;;;;;;9.32;2.92;;;;;;;;;;5047397;28;20021;-70
2023/01/20 13:02:42;;;;;;;7.33;2.73;;;;;;;;;;5053681;28;20025;-72
2023/01/20 13:05:47;;;;;;;6.53;3.25;;;;;;;;;;5046927;28;20036;-73
2023/01/20 13:08:44;;;;;;;6.28;2.80;;;;;;;;;;5043554;28;20040;-73
2023/01/20 13:11:38;;;;;;;5.88;2.85;;;;;;;;;;5040827;28;20100;-74
2023/01/20 13:14:30;;;;;;;6.72;3.78;;;;;;;;;;5046561;28;20025;-76
2023/01/20 13:17:21;;;;;;;8.88;3.08;;;;;;;;;;5056141;28;20086;-71
2023/01/20 13:20:33;;;;;;;7.75;3.53;;;;;;;;;;5046673;28;20025;-73
2023/01/20 13:23:24;;;;;;;8.20;3.80;;;;;;;;;;5041566;28;20033;-74
2023/01/20 13:26:09;;;;;;;6.05;3.50;;;;;;;;;;5049753;28;20547;-76
2023/01/20 13:28:55;;;;;;;6.07;3.28;;;;;;;;;;5050133;28;20128;-81
2023/01/20 13:31:41;;;;;;;10.30;3.95;;;;;;;;;;5042147;28;21461;-75
2023/01/20 13:34:26;;;;;;;8.88;3.97;;;;;;;;;;5038570;28;20536;-78
2023/01/20 13:37:14;;;;;;;11.20;4.60;;;;;;;;;;5041978;28;20051;-76
2023/01/20 13:40:00;;;;;;;7.53;3.58;;;;;;;;;;5043476;28;20021;-75
2023/01/20 13:42:47;;;;;;;6.53;3.53;;;;;;;;;;5047811;28;20063;-73
2023/01/20 13:45:32;;;;;;;12.43;3.70;;;;;;;;;;5066529;28;20100;-79
2023/01/20 13:48:22;;;;;;;7.65;3.35;;;;;;;;;;5035016;28;20021;-75
2023/01/20 13:51:25;;;;;;;8.52;3.15;;;;;;;;;;5041678;28;20056;-75
2023/01/20 13:54:32;;;;;;;8.15;3.60;;;;;;;;;;5041716;28;20028;-73
2023/01/20 13:57:27;;;;;;;7.63;2.60;;;;;;;;;;5026191;28;20546;-69
2023/01/20 14:00:12;;;;;;;6.22;2.40;;;;;;;;;;5045632;28;20029;-71
2023/01/20 14:02:57;;;;;;;4.97;2.33;;;;;;;;;;5057026;28;20564;-73
2023/01/20 14:05:47;;;;;;;6.22;2.33;;;;;;;;;;5040927;28;20029;-74
2023/01/20 14:08:42;;;;;;;4.25;1.95;;;;;;;;;;5053802;28;20093;-76
2023/01/20 14:11:28;;;;;;;4.35;2.33;;;;;;;;;;5033459;28;20114;-75
2023/01/20 14:14:16;;;;;;;4.35;2.25;;;;;;;;;;5040449;28;20625;-74
2023/01/20 14:17:02;;;;;;;5.57;2.95;;;;;;;;;;5068734;28;20384;-73
2023/01/20 14:19:48;;;;;;;6.10;2.78;;;;;;;;;;5054806;28;20109;-78
2023/01/20 14:22:34;;;;;;;6.25;2.30;;;;;;;;;;5058935;28;20025;-77
2023/01/20 14:25:21;;;;;;;4.47;2.28;;;;;;;;;;5043706;28;20102;-77
2023/01/20 14:28:16;;;;;;;8.30;2.97;;;;;;;;;;5037302;28;20107;-83
2023/01/20 14:31:12;;;;;;;5.95;2.88;;;;;;;;;;5046225;28;20037;-77
2023/01/20 14:33:59;;;;;;;4.35;2.28;;;;;;;;;;5042249;28;20024;-84
2023/01/20 14:36:45;;;;;;;8.48;3.15;;;;;;;;;;5052341;28;20479;-70
2023/01/20 14:39:30;;;;;;;4.93;2.88;;;;;;;;;;5057948;28;20028;-70
2023/01/20 14:42:17;;;;;;;3.55;2.35;;;;;;;;;;5043642;28;20029;-71
2023/01/20 14:45:23;;;;;;;4.95;2.17;;;;;;;;;;5055537;28;20029;-70
2023/01/20 14:48:09;;;;;;;5.20;2.35;;;;;;;;;;5039213;28;20029;-71
2023/01/20 14:50:56;;;;;;;8.07;2.85;;;;;;;;;;5038485;28;20053;-72
2023/01/20 14:53:41;;;;;;;5.63;2.17;;;;;;;;;;5041497;28;20036;-71
2023/01/20 14:56:26;;;;;;;4.03;2.40;;;;;;;;;;5048734;28;20016;-72
2023/01/20 14:59:17;;;;;;;6.05;2.08;;;;;;;;;;5039745;28;20025;-73
2023/01/20 15:02:05;;;;;;;4.70;2.15;;;;;;;;;;5052990;28;20021;-72
2023/01/20 15:04:50;;;;;;;5.47;2.72;;;;;;;;;;5039998;28;20037;-73
2023/01/20 15:07:36;;;;;;;4.53;2.42;;;;;;;;;;5043421;28;20024;-72
2023/01/20 15:10:21;;;;;;;5.85;2.72;;;;;;;;;;5049713;28;20558;-81
2023/01/20 15:13:20;;;;;;;4.38;2.42;;;;;;;;;;5055729;28;20025;-72
2023/01/20 15:16:06;;;;;;;5.70;2.67;;;;;;;;;;5053299;28;20025;-73
2023/01/20 15:19:10;;;;;;;6.75;2.90;;;;;;;;;;5053232;28;20025;-75
2023/01/20 15:22:09;;;;;;;4.35;2.42;;;;;;;;;;5043630;28;20032;-74
2023/01/20 15:24:55;;;;;;;8.00;2.72;;;;;;;;;;5049394;28;20044;-74
2023/01/20 15:27:40;;;;;;;10.70;3.28;;;;;;;;;;5060193;28;20115;-76
2023/01/20 15:30:28;;;;;;;11.82;3.45;;;;;;;;;;5042559;28;20044;-75
2023/01/20 15:33:13;;;;;;;7.30;3.05;;;;;;;;;;5038199;28;20164;-76
2023/01/20 15:35:59;;;;;;;9.68;2.80;;;;;;;;;;5052229;28;20121;-77
2023/01/20 15:38:44;;;;;;;12.30;3.05;;;;;;;;;;5043120;28;20029;-76
2023/01/20 15:41:30;;;;;;;9.20;2.92;;;;;;;;;;5032774;28;20243;-76
2023/01/20 15:44:15;;;;;;;5.57;2.35;;;;;;;;;;5052092;28;20104;-77
2023/01/20 15:47:00;;;;;;;11.07;3.88;;;;;;;;;;5045891;28;20119;-77
2023/01/20 15:49:45;;;;;;;8.10;2.65;;;;;;;;;;5035490;28;20123;-73
2023/01/20 15:52:31;;;;;;;5.05;2.22;;;;;;;;;;5066013;28;20078;-72
2023/01/20 15:55:17;;;;;;;6.53;2.50;;;;;;;;;;5019950;28;20108;-72
2023/01/20 15:58:10;;;;;;;8.93;2.90;;;;;;;;;;5012780;28;20044;-75
2023/01/20 16:00:56;;;;;;;17.27;4.03;;;;;;;;;;5044266;28;20025;-71
2023/01/20 16:03:43;;;;;;;4.28;2.53;;;;;;;;;;5010294;28;20102;-72
2023/01/20 16:06:30;;;;;;;8.55;3.63;;;;;;;;;;5027730;28;20500;-81
2023/01/20 16:09:25;;;;;;;9.18;2.88;;;;;;;;;;5039356;28;20080;-84
2023/01/20 16:12:11;;;;;;;7.85;3.45;;;;;;;;;;5043771;28;20116;-79
2023/01/20 16:14:57;;;;;;;5.38;2.35;;;;;;;;;;5036176;28;20036;-83
2023/01/20 16:17:42;;;;;;;9.02;2.90;;;;;;;;;;5033017;28;20076;-87
2023/01/20 16:20:28;;;;;;;8.93;2.83;;;;;;;;;;5073062;28;20021;-88
2023/01/20 16:23:13;;;;;;;7.07;2.75;;;;;;;;;;5046720;28;20033;-85
2023/01/20 16:25:58;;;;;;;6.80;3.13;;;;;;;;;;5049708;28;20491;-72
2023/01/20 16:28:44;;;;;;;11.77;3.50;;;;;;;;;;5042435;28;20057;-73
2023/01/20 16:31:29;;;;;;;11.35;2.85;;;;;;;;;;5054638;28;20038;-75
2023/01/20 16:34:14;;;;;;;9.60;3.28;;;;;;;;;;5029485;28;20035;-74
2023/01/20 16:36:59;;;;;;;6.40;2.97;;;;;;;;;;5041368;28;20037;-75
2023/01/20 16:39:45;;;;;;;6.80;2.75;;;;;;;;;;5044843;28;20037;-74
2023/01/20 16:42:30;;;;;;;8.23;3.33;;;;;;;;;;5022488;28;20055;-71
2023/01/20 16:45:28;;;;;;;6.75;3.17;;;;;;;;;;5044192;28;20408;-77
2023/01/20 16:48:13;;;;;;;7.70;2.90;;;;;;;;;;5038607;28;20108;-75
2023/01/20 16:51:03;;;;;;;8.70;3.40;;;;;;;;;;5034779;28;20020;-85